createdAt,value
2018-06-17T00:00:04.420Z,16.187
2018-06-17T00:01:04.118Z,16.125
2018-06-17T00:02:03.907Z,16.125
2018-06-17T00:03:04.107Z,16.062
2018-06-17T00:04:03.656Z,16
2018-06-17T00:05:04.369Z,16
2018-06-17T00:06:03.823Z,16
2018-06-17T00:07:03.492Z,15.937
2018-06-17T00:08:04.180Z,15.937
2018-06-17T00:09:04.204Z,15.875
2018-06-17T00:10:03.569Z,15.937
2018-06-17T00:11:03.419Z,15.937
2018-06-17T00:12:04.157Z,15.875
2018-06-17T00:13:03.649Z,15.875
2018-06-17T00:14:04.294Z,15.875
2018-06-17T00:15:03.906Z,15.875
2018-06-17T00:16:03.643Z,15.875
2018-06-17T00:17:04.397Z,15.875
2018-06-17T00:18:04.200Z,15.875
2018-06-17T00:19:03.561Z,15.937
2018-06-17T00:20:03.412Z,15.937
2018-06-17T00:21:03.833Z,16
2018-06-17T00:22:03.752Z,16
2018-06-17T00:23:03.607Z,16
2018-06-17T00:24:03.399Z,16.062
2018-06-17T00:25:04.020Z,16
2018-06-17T00:26:03.490Z,16
2018-06-17T00:27:04.125Z,15.937
2018-06-17T00:28:03.596Z,15.875
2018-06-17T00:29:03.898Z,15.875
2018-06-17T00:30:03.628Z,15.812
2018-06-17T00:31:03.608Z,15.812
2018-06-17T00:32:04.112Z,15.75
2018-06-17T00:33:03.942Z,15.75
2018-06-17T00:34:03.922Z,15.687
2018-06-17T00:35:03.729Z,15.687
2018-06-17T00:36:05.214Z,15.687
2018-06-17T00:37:04.133Z,15.625
2018-06-17T00:38:03.662Z,15.562
2018-06-17T00:39:03.932Z,15.562
2018-06-17T00:40:04.464Z,15.5
2018-06-17T00:41:05.099Z,15.5
2018-06-17T00:42:03.765Z,15.437
2018-06-17T00:43:03.492Z,15.375
2018-06-17T00:44:04.070Z,15.375
2018-06-17T00:45:03.649Z,15.375
2018-06-17T00:46:03.459Z,15.375
2018-06-17T00:47:04.171Z,15.375
2018-06-17T00:48:04.185Z,15.375
2018-06-17T00:49:03.506Z,15.312
2018-06-17T00:50:04.181Z,15.312
2018-06-17T00:51:03.717Z,15.312
2018-06-17T00:52:03.494Z,15.375
2018-06-17T00:53:03.984Z,15.375
2018-06-17T00:54:03.503Z,15.437
2018-06-17T00:55:04.089Z,15.437
2018-06-17T00:56:03.919Z,15.437
2018-06-17T00:57:04.195Z,15.437
2018-06-17T00:58:03.895Z,15.437
2018-06-17T00:59:03.626Z,15.375
2018-06-17T01:00:04.233Z,15.375
2018-06-17T01:01:03.842Z,15.437
2018-06-17T01:02:03.385Z,15.437
2018-06-17T01:03:04.080Z,15.5
2018-06-17T01:04:04.482Z,15.5
2018-06-17T01:05:03.950Z,15.5
2018-06-17T01:06:03.607Z,15.437
2018-06-17T01:07:04.216Z,15.437
2018-06-17T01:08:03.977Z,15.375
2018-06-17T01:09:03.684Z,15.312
2018-06-17T01:10:04.392Z,15.312
2018-06-17T01:11:03.941Z,15.25
2018-06-17T01:12:03.469Z,15.25
2018-06-17T01:13:04.027Z,15.187
2018-06-17T01:14:03.722Z,15.187
2018-06-17T01:15:04.260Z,15.125
2018-06-17T01:16:03.388Z,15.062
2018-06-17T01:17:03.593Z,15.062
2018-06-17T01:18:03.752Z,15
2018-06-17T01:19:04.281Z,15
2018-06-17T01:20:03.752Z,14.937
2018-06-17T01:21:04.344Z,14.937
2018-06-17T01:22:03.899Z,14.875
2018-06-17T01:23:03.470Z,14.875
2018-06-17T01:24:04.123Z,14.812
2018-06-17T01:25:03.965Z,14.75
2018-06-17T01:26:03.670Z,14.75
2018-06-17T01:27:06.545Z,14.75
2018-06-17T01:28:03.701Z,14.812
2018-06-17T01:29:03.979Z,14.812
2018-06-17T01:30:04.457Z,14.812
2018-06-17T01:31:03.728Z,14.812
2018-06-17T01:32:04.285Z,14.812
2018-06-17T01:33:03.783Z,14.812
2018-06-17T01:34:03.462Z,14.812
2018-06-17T01:35:03.891Z,14.75
2018-06-17T01:36:03.598Z,14.687
2018-06-17T01:37:04.145Z,14.625
2018-06-17T01:38:03.746Z,14.562
2018-06-17T01:39:04.593Z,14.562
2018-06-17T01:40:04.328Z,14.5
2018-06-17T01:41:03.750Z,14.5
2018-06-17T01:42:03.669Z,14.437
2018-06-17T01:43:04.114Z,14.437
2018-06-17T01:44:03.627Z,14.5
2018-06-17T01:45:04.300Z,14.437
2018-06-17T01:46:03.621Z,14.437
2018-06-17T01:47:04.133Z,14.375
2018-06-17T01:48:03.647Z,14.375
2018-06-17T01:49:04.192Z,14.312
2018-06-17T01:50:03.905Z,14.312
2018-06-17T01:51:03.617Z,14.375
2018-06-17T01:52:04.141Z,14.437
2018-06-17T01:53:03.541Z,14.5
2018-06-17T01:54:04.156Z,14.5
2018-06-17T01:55:03.770Z,14.562
2018-06-17T01:56:04.136Z,14.562
2018-06-17T01:57:03.640Z,14.562
2018-06-17T01:58:04.234Z,14.562
2018-06-17T01:59:03.822Z,14.562
2018-06-17T02:00:04.259Z,14.5
2018-06-17T02:01:03.697Z,14.5
2018-06-17T02:02:04.454Z,14.5
2018-06-17T02:03:03.712Z,14.5
2018-06-17T02:04:04.406Z,14.437
2018-06-17T02:05:04.026Z,14.437
2018-06-17T02:06:03.585Z,14.375
2018-06-17T02:07:04.018Z,14.312
2018-06-17T02:08:03.791Z,14.312
2018-06-17T02:09:04.479Z,14.25
2018-06-17T02:10:04.231Z,14.187
2018-06-17T02:11:03.802Z,14.187
2018-06-17T02:12:03.389Z,14.187
2018-06-17T02:13:03.923Z,14.187
2018-06-17T02:14:04.433Z,14.187
2018-06-17T02:15:03.776Z,14.187
2018-06-17T02:16:04.471Z,14.125
2018-06-17T02:17:03.961Z,14.125
2018-06-17T02:18:03.623Z,14.125
2018-06-17T02:19:04.184Z,14.125
2018-06-17T02:20:03.565Z,14.125
2018-06-17T02:21:04.169Z,14.125
2018-06-17T02:22:03.594Z,14.062
2018-06-17T02:23:04.246Z,14.062
2018-06-17T02:24:03.636Z,14.062
2018-06-17T02:25:03.361Z,14.062
2018-06-17T02:26:03.959Z,14.062
2018-06-17T02:27:03.268Z,14.062
2018-06-17T02:28:03.807Z,14
2018-06-17T02:29:04.163Z,14
2018-06-17T02:30:03.946Z,14
2018-06-17T02:31:03.740Z,13.937
2018-06-17T02:32:03.389Z,13.875
2018-06-17T02:33:03.699Z,13.812
2018-06-17T02:34:04.157Z,13.75
2018-06-17T02:35:03.710Z,13.687
2018-06-17T02:36:04.173Z,13.687
2018-06-17T02:37:03.916Z,13.625
2018-06-17T02:38:03.628Z,13.625
2018-06-17T02:39:04.233Z,13.625
2018-06-17T02:42:03.806Z,13.5
2018-06-17T02:43:03.452Z,13.437
2018-06-17T02:44:04.148Z,13.437
2018-06-17T02:45:03.619Z,13.437
2018-06-17T02:46:03.904Z,13.437
2018-06-17T02:47:03.581Z,13.437
2018-06-17T02:48:03.940Z,13.437
2018-06-17T02:49:03.389Z,13.437
2018-06-17T02:50:04.115Z,13.437
2018-06-17T02:51:04.202Z,13.437
2018-06-17T02:52:03.870Z,13.5
2018-06-17T02:53:03.601Z,13.437
2018-06-17T02:54:03.783Z,13.437
2018-06-17T02:55:03.368Z,13.375
2018-06-17T02:56:03.811Z,13.375
2018-06-17T02:57:03.957Z,13.375
2018-06-17T02:58:03.400Z,13.375
2018-06-17T02:59:04.189Z,13.312
2018-06-17T03:00:03.952Z,13.312
2018-06-17T03:01:03.492Z,13.312
2018-06-17T03:02:04.014Z,13.437
2018-06-17T03:03:03.606Z,13.562
2018-06-17T03:04:03.932Z,13.625
2018-06-17T03:05:03.440Z,13.812
2018-06-17T03:06:03.938Z,13.937
2018-06-17T03:07:03.314Z,14
2018-06-17T03:08:04.954Z,14.187
2018-06-17T03:09:04.213Z,14.25
2018-06-17T03:10:03.752Z,14.375
2018-06-17T03:11:03.405Z,14.5
2018-06-17T03:12:03.938Z,14.625
2018-06-17T03:13:03.584Z,14.812
2018-06-17T03:14:04.124Z,14.937
2018-06-17T03:15:04.512Z,15.125
2018-06-17T03:16:03.696Z,15.312
2018-06-17T03:17:03.542Z,15.437
2018-06-17T03:18:04.179Z,15.625
2018-06-17T03:19:03.523Z,15.875
2018-06-17T03:20:04.210Z,16.062
2018-06-17T03:21:03.737Z,16.312
2018-06-17T03:22:03.978Z,16.5
2018-06-17T03:24:03.340Z,16.937
2018-06-17T03:25:03.908Z,17.125
2018-06-17T03:26:04.161Z,17.375
2018-06-17T03:27:03.639Z,17.562
2018-06-17T03:28:04.124Z,17.812
2018-06-17T03:29:03.672Z,18.062
2018-06-17T03:30:04.367Z,18.25
2018-06-17T03:31:03.988Z,18.437
2018-06-17T03:32:03.465Z,18.687
2018-06-17T03:33:04.093Z,18.875
2018-06-17T03:34:03.547Z,19.125
2018-06-17T03:35:04.118Z,19.375
2018-06-17T03:36:03.744Z,19.562
2018-06-17T03:37:03.501Z,19.75
2018-06-17T03:38:03.957Z,19.875
2018-06-17T03:39:03.819Z,20
2018-06-17T03:40:04.172Z,20.125
2018-06-17T03:41:03.783Z,20.187
2018-06-17T03:42:04.286Z,20.375
2018-06-17T03:43:03.925Z,20.437
2018-06-17T03:44:03.533Z,20.687
2018-06-17T03:45:04.248Z,21
2018-06-17T03:46:03.882Z,21.187
2018-06-17T03:47:03.630Z,21.312
2018-06-17T03:48:04.100Z,21.5
2018-06-17T03:49:03.463Z,21.687
2018-06-17T03:50:03.903Z,21.812
2018-06-17T03:51:04.298Z,21.875
2018-06-17T03:52:03.694Z,21.937
2018-06-17T03:53:04.171Z,21.937
2018-06-17T03:54:03.603Z,22.062
2018-06-17T03:55:03.986Z,22.25
2018-06-17T03:56:03.631Z,22.437
2018-06-17T03:57:04.357Z,22.5
2018-06-17T03:58:03.631Z,22.562
2018-06-17T03:59:04.071Z,22.625
2018-06-17T04:00:03.502Z,22.75
2018-06-17T04:01:04.232Z,22.875
2018-06-17T04:02:03.923Z,23.062
2018-06-17T04:03:03.394Z,23.125
2018-06-17T04:04:04.001Z,23.187
2018-06-17T04:05:03.506Z,23.312
2018-06-17T04:06:03.314Z,23.437
2018-06-17T04:07:03.942Z,23.562
2018-06-17T04:08:03.617Z,23.75
2018-06-17T04:09:04.570Z,23.687
2018-06-17T04:10:04.018Z,23.687
2018-06-17T04:11:03.627Z,23.875
2018-06-17T04:12:03.298Z,24
2018-06-17T04:13:03.617Z,24.125
2018-06-17T04:14:04.108Z,24.062
2018-06-17T04:15:04.117Z,24.062
2018-06-17T04:16:03.441Z,24.125
2018-06-17T04:17:04.326Z,24.25
2018-06-17T04:18:03.784Z,24.5
2018-06-17T04:19:04.125Z,24.687
2018-06-17T04:21:03.876Z,24.812
2018-06-17T04:22:03.685Z,24.75
2018-06-17T04:23:04.165Z,24.75
2018-06-17T04:24:03.435Z,24.812
2018-06-17T04:25:04.614Z,24.937
2018-06-17T04:26:04.001Z,25
2018-06-17T04:27:04.171Z,25
2018-06-17T04:28:03.766Z,24.937
2018-06-17T04:29:03.388Z,25
2018-06-17T04:30:04.184Z,25
2018-06-17T04:31:03.904Z,24.937
2018-06-17T04:32:04.219Z,24.562
2018-06-17T04:33:04.786Z,24.625
2018-06-17T04:34:04.217Z,24.687
2018-06-17T04:35:04.852Z,24.75
2018-06-17T04:36:04.137Z,24.5
2018-06-17T04:37:03.825Z,24.187
2018-06-17T04:38:03.953Z,23.937
2018-06-17T04:39:03.850Z,23.687
2018-06-17T04:40:04.376Z,23.437
2018-06-17T04:41:03.865Z,23.437
2018-06-17T04:42:03.361Z,23.375
2018-06-17T04:43:04.047Z,23.312
2018-06-17T04:44:03.838Z,23.75
2018-06-17T04:45:03.539Z,24.187
2018-06-17T04:46:05.118Z,24.5
2018-06-17T04:47:04.324Z,24.5
2018-06-17T04:48:03.711Z,24.687
2018-06-17T04:49:03.334Z,25
2018-06-17T04:50:04.101Z,25.062
2018-06-17T04:51:03.538Z,25.125
2018-06-17T04:52:04.016Z,25.25
2018-06-17T04:53:03.546Z,25.562
2018-06-17T04:54:04.054Z,25.937
2018-06-17T04:55:03.639Z,26.187
2018-06-17T04:56:03.450Z,26.25
2018-06-17T04:57:03.830Z,26.187
2018-06-17T04:58:03.557Z,26.312
2018-06-17T04:59:03.879Z,26.5
2018-06-17T05:00:03.602Z,26.687
2018-06-17T05:01:04.100Z,26.75
2018-06-17T05:02:03.852Z,26.875
2018-06-17T05:03:03.292Z,26.875
2018-06-17T05:04:03.670Z,26.875
2018-06-17T05:05:03.581Z,26.562
2018-06-17T05:06:03.868Z,26.625
2018-06-17T05:07:03.954Z,26.75
2018-06-17T05:08:03.633Z,26.562
2018-06-17T05:09:04.562Z,26.812
2018-06-17T05:10:04.101Z,27.125
2018-06-17T05:11:03.830Z,26.937
2018-06-17T05:12:03.345Z,26.812
2018-06-17T05:13:04.079Z,26.625
2018-06-17T05:14:03.677Z,26.375
2018-06-17T05:15:04.279Z,26.312
2018-06-17T05:16:03.806Z,26.375
2018-06-17T05:17:03.675Z,26.437
2018-06-17T05:18:04.331Z,26.25
2018-06-17T05:19:03.980Z,26.125
2018-06-17T05:20:04.344Z,26
2018-06-17T05:21:03.633Z,26.187
2018-06-17T05:22:04.004Z,26.125
2018-06-17T05:23:03.547Z,26
2018-06-17T05:24:03.982Z,26
2018-06-17T05:25:03.411Z,26.125
2018-06-17T05:26:04.171Z,26.062
2018-06-17T05:27:03.846Z,26.062
2018-06-17T05:28:03.496Z,26.125
2018-06-17T05:29:04.173Z,26.125
2018-06-17T05:30:03.647Z,26.062
2018-06-17T05:31:03.547Z,26.062
2018-06-17T05:32:04.165Z,26.125
2018-06-17T05:33:04.059Z,26.187
2018-06-17T05:34:03.747Z,26.25
2018-06-17T05:35:03.318Z,26.187
2018-06-17T05:36:04.030Z,26.187
2018-06-17T05:37:03.651Z,26.25
2018-06-17T05:38:04.263Z,26.5
2018-06-17T05:39:03.851Z,26.687
2018-06-17T05:40:04.265Z,26.75
2018-06-17T05:41:04.168Z,27.062
2018-06-17T05:42:03.778Z,27.187
2018-06-17T05:43:04.342Z,27.312
2018-06-17T05:44:03.953Z,27.437
2018-06-17T05:45:03.576Z,27.375
2018-06-17T05:46:03.317Z,27.375
2018-06-17T05:47:03.896Z,27.437
2018-06-17T05:48:03.592Z,27.312
2018-06-17T05:49:04.239Z,27.25
2018-06-17T05:50:03.808Z,27.437
2018-06-17T05:52:04.138Z,27.562
2018-06-17T05:53:03.890Z,27.687
2018-06-17T05:54:03.501Z,27.75
2018-06-17T05:55:04.219Z,28.062
2018-06-17T05:56:03.756Z,28.375
2018-06-17T05:57:03.344Z,28.562
2018-06-17T05:58:03.896Z,28.375
2018-06-17T05:59:03.551Z,28.312
2018-06-17T06:00:04.369Z,28.375
2018-06-17T06:01:03.981Z,28.625
2018-06-17T06:02:03.753Z,28.75
2018-06-17T06:03:04.220Z,28.75
2018-06-17T06:04:04.012Z,28.75
2018-06-17T06:05:04.476Z,28.875
2018-06-17T06:06:03.734Z,28.812
2018-06-17T06:07:03.368Z,28.875
2018-06-17T06:08:03.592Z,28.687
2018-06-17T06:09:04.618Z,28.437
2018-06-17T06:10:04.093Z,28.375
2018-06-17T06:11:03.718Z,28.375
2018-06-17T06:12:03.969Z,28.312
2018-06-17T06:13:03.760Z,28.187
2018-06-17T06:14:03.289Z,28.312
2018-06-17T06:15:03.964Z,28.562
2018-06-17T06:16:03.549Z,28.375
2018-06-17T06:17:04.338Z,28.562
2018-06-17T06:18:03.742Z,28.562
2018-06-17T06:19:04.321Z,28.625
2018-06-17T06:20:03.780Z,28.312
2018-06-17T06:21:03.393Z,28.5
2018-06-17T06:22:04.122Z,28.375
2018-06-17T06:23:03.841Z,28.312
2018-06-17T06:24:04.212Z,28.437
2018-06-17T06:25:03.844Z,28.437
2018-06-17T06:26:03.687Z,28.562
2018-06-17T06:27:04.208Z,28.5
2018-06-17T06:28:03.827Z,28.5
2018-06-17T06:29:03.916Z,28.625
2018-06-17T06:30:03.333Z,28.625
2018-06-17T06:31:04.319Z,28.562
2018-06-17T06:32:03.487Z,28.437
2018-06-17T06:33:04.115Z,28.5
2018-06-17T06:34:03.826Z,28.625
2018-06-17T06:35:03.497Z,28.875
2018-06-17T06:36:04.034Z,28.75
2018-06-17T06:37:03.827Z,28.625
2018-06-17T06:38:03.325Z,28.75
2018-06-17T06:39:04.241Z,28.812
2018-06-17T06:40:03.773Z,28.812
2018-06-17T06:41:03.448Z,29
2018-06-17T06:42:04.075Z,29.062
2018-06-17T06:43:03.701Z,29.062
2018-06-17T06:44:04.224Z,29
2018-06-17T06:45:04.002Z,29.187
2018-06-17T06:46:03.597Z,29.437
2018-06-17T06:47:04.182Z,29.375
2018-06-17T06:48:03.878Z,29.375
2018-06-17T06:49:03.402Z,29.437
2018-06-17T06:50:04.166Z,29.25
2018-06-17T06:51:03.789Z,29.187
2018-06-17T06:52:03.652Z,29.25
2018-06-17T06:53:03.715Z,29.25
2018-06-17T06:54:03.255Z,29.25
2018-06-17T06:55:03.617Z,29.375
2018-06-17T06:56:04.119Z,29.375
2018-06-17T06:57:03.454Z,29.125
2018-06-17T06:58:04.118Z,28.75
2018-06-17T06:59:03.704Z,28.75
2018-06-17T07:00:04.213Z,28.937
2018-06-17T07:01:03.908Z,29.437
2018-06-17T07:02:03.529Z,29.312
2018-06-17T07:03:04.200Z,29.25
2018-06-17T07:04:03.754Z,29.437
2018-06-17T07:05:03.411Z,29.687
2018-06-17T07:06:04.120Z,29.812
2018-06-17T07:07:03.724Z,29.875
2018-06-17T07:08:03.411Z,29.75
2018-06-17T07:09:04.176Z,29.562
2018-06-17T07:10:03.917Z,29.125
2018-06-17T07:11:03.647Z,28.687
2018-06-17T07:12:03.745Z,28.5
2018-06-17T07:13:03.414Z,28.562
2018-06-17T07:14:04.041Z,28.437
2018-06-17T07:15:03.590Z,28.375
2018-06-17T07:16:04.041Z,28.125
2018-06-17T07:17:03.695Z,27.875
2018-06-17T07:18:04.273Z,27.75
2018-06-17T07:19:03.749Z,27.875
2018-06-17T07:20:04.237Z,27.812
2018-06-17T07:21:03.955Z,28.125
2018-06-17T07:22:04.602Z,28.312
2018-06-17T07:23:04.160Z,28.375
2018-06-17T07:24:03.878Z,28.437
2018-06-17T07:25:03.616Z,28.437
2018-06-17T07:26:04.196Z,28.5
2018-06-17T07:27:04.073Z,28.687
2018-06-17T07:28:03.868Z,28.812
2018-06-17T07:29:04.141Z,28.812
2018-06-17T07:30:03.904Z,28.812
2018-06-17T07:31:03.585Z,28.875
2018-06-17T07:32:04.243Z,29.312
2018-06-17T07:33:04.035Z,29.687
2018-06-17T07:34:03.664Z,30
2018-06-17T07:35:03.353Z,30.25
2018-06-17T07:36:04.067Z,30.625
2018-06-17T07:37:03.816Z,30.875
2018-06-17T07:38:03.319Z,31.062
2018-06-17T07:39:04.296Z,30.937
2018-06-17T07:40:03.782Z,30.937
2018-06-17T07:41:03.568Z,30.687
2018-06-17T07:42:04.196Z,30.687
2018-06-17T07:43:03.753Z,30.687
2018-06-17T07:44:03.331Z,30.25
2018-06-17T07:45:04.383Z,29.562
2018-06-17T07:46:04.112Z,29.125
2018-06-17T07:47:03.638Z,28.75
2018-06-17T07:48:04.354Z,28.5
2018-06-17T07:49:03.845Z,28.375
2018-06-17T07:50:03.441Z,28.312
2018-06-17T07:51:04.481Z,28.375
2018-06-17T07:52:03.843Z,28.5
2018-06-17T07:53:04.464Z,28.625
2018-06-17T07:54:03.893Z,28.75
2018-06-17T07:55:03.530Z,29
2018-06-17T07:56:03.956Z,29.187
2018-06-17T07:57:03.509Z,29
2018-06-17T07:58:04.109Z,28.875
2018-06-17T07:59:03.737Z,28.75
2018-06-17T08:00:03.498Z,28.937
2018-06-17T08:01:04.055Z,29.312
2018-06-17T08:02:03.819Z,29.375
2018-06-17T08:03:04.080Z,29.312
2018-06-17T08:04:03.770Z,29.375
2018-06-17T08:05:04.281Z,29.437
2018-06-17T08:06:04.074Z,29.687
2018-06-17T08:07:03.455Z,29.687
2018-06-17T08:08:03.985Z,29.625
2018-06-17T08:09:03.801Z,29.625
2018-06-17T08:10:04.418Z,29.437
2018-06-17T08:11:03.941Z,29.375
2018-06-17T08:12:03.462Z,29.125
2018-06-17T08:13:04.104Z,29.187
2018-06-17T08:14:03.772Z,29.125
2018-06-17T08:15:03.472Z,29.062
2018-06-17T08:16:04.052Z,28.937
2018-06-17T08:17:03.939Z,29.062
2018-06-17T08:18:03.393Z,29.375
2018-06-17T08:19:03.939Z,29.312
2018-06-17T08:20:03.290Z,29.187
2018-06-17T08:21:03.469Z,29.187
2018-06-17T08:22:04.213Z,29.187
2018-06-17T08:23:03.786Z,29.125
2018-06-17T08:24:04.039Z,29.125
2018-06-17T08:25:04.199Z,28.937
2018-06-17T08:26:03.982Z,29
2018-06-17T08:27:03.622Z,29.312
2018-06-17T08:28:04.374Z,29.375
2018-06-17T08:29:03.877Z,29.25
2018-06-17T08:30:03.656Z,29.187
2018-06-17T08:31:04.322Z,29.312
2018-06-17T08:32:03.979Z,29.75
2018-06-17T08:33:03.474Z,29.812
2018-06-17T08:34:04.059Z,30
2018-06-17T08:35:03.693Z,30.312
2018-06-17T08:36:04.359Z,30.687
2018-06-17T08:37:03.995Z,31.125
2018-06-17T08:38:03.991Z,31.562
2018-06-17T08:39:03.692Z,31.562
2018-06-17T08:40:04.173Z,31.375
2018-06-17T08:41:03.891Z,31.437
2018-06-17T08:42:03.944Z,31.625
2018-06-17T08:43:03.737Z,31.875
2018-06-17T08:44:04.107Z,32
2018-06-17T08:45:03.716Z,31.812
2018-06-17T08:46:04.199Z,31.625
2018-06-17T08:47:03.894Z,31.25
2018-06-17T08:48:04.231Z,30.625
2018-06-17T08:49:03.860Z,30.125
2018-06-17T08:50:03.464Z,30.125
2018-06-17T08:51:04.064Z,30.062
2018-06-17T08:52:04.058Z,29.875
2018-06-17T08:53:03.744Z,29.937
2018-06-17T08:54:03.972Z,30
2018-06-17T08:55:03.509Z,29.937
2018-06-17T08:56:03.929Z,30.125
2018-06-17T08:57:03.522Z,30.312
2018-06-17T08:58:04.071Z,30.75
2018-06-17T08:59:03.688Z,30.937
2018-06-17T09:00:04.327Z,30.937
2018-06-17T09:01:03.851Z,30.875
2018-06-17T09:02:03.643Z,30.687
2018-06-17T09:03:04.398Z,30.5
2018-06-17T09:04:03.958Z,30.062
2018-06-17T09:05:03.437Z,29.812
2018-06-17T09:06:04.135Z,29.312
2018-06-17T09:07:03.825Z,29.125
2018-06-17T09:08:03.383Z,28.812
2018-06-17T09:09:03.912Z,28.687
2018-06-17T09:10:03.346Z,28.812
2018-06-17T09:11:03.885Z,29.125
2018-06-17T09:12:03.536Z,29.187
2018-06-17T09:13:03.684Z,28.875
2018-06-17T09:14:04.179Z,28.687
2018-06-17T09:15:03.692Z,28.562
2018-06-17T09:16:04.298Z,28.312
2018-06-17T09:17:03.672Z,28.437
2018-06-17T09:18:04.007Z,28.562
2018-06-17T09:19:03.601Z,28.625
2018-06-17T09:20:04.236Z,28.687
2018-06-17T09:21:03.722Z,28.75
2018-06-17T09:22:04.269Z,28.687
2018-06-17T09:23:03.897Z,28.875
2018-06-17T09:24:03.575Z,28.937
2018-06-17T09:25:04.287Z,29
2018-06-17T09:26:03.814Z,29.125
2018-06-17T09:27:04.371Z,29.25
2018-06-17T09:28:03.971Z,29.437
2018-06-17T09:29:03.590Z,29.687
2018-06-17T09:30:04.260Z,29.75
2018-06-17T09:31:03.912Z,30
2018-06-17T09:32:03.819Z,30.125
2018-06-17T09:33:04.178Z,30.125
2018-06-17T09:34:03.956Z,30.312
2018-06-17T09:35:04.207Z,30.437
2018-06-17T09:36:04.053Z,30.437
2018-06-17T09:37:03.674Z,30.312
2018-06-17T09:38:03.506Z,30.187
2018-06-17T09:39:04.540Z,30.125
2018-06-17T09:40:04.148Z,30
2018-06-17T09:41:03.654Z,30.062
2018-06-17T09:42:04.313Z,30.187
2018-06-17T09:43:03.923Z,30.187
2018-06-17T09:44:04.092Z,30.062
2018-06-17T09:45:03.648Z,29.875
2018-06-17T09:46:03.510Z,29.937
2018-06-17T09:47:04.071Z,29.875
2018-06-17T09:48:03.617Z,29.812
2018-06-17T09:49:03.396Z,29.75
2018-06-17T09:50:04.116Z,29.625
2018-06-17T09:51:03.589Z,29.562
2018-06-17T09:52:04.180Z,29.687
2018-06-17T09:53:03.535Z,29.937
2018-06-17T09:54:04.154Z,30.062
2018-06-17T09:55:03.745Z,30.125
2018-06-17T09:56:03.500Z,30.062
2018-06-17T09:57:03.797Z,30.187
2018-06-17T09:58:03.607Z,30.062
2018-06-17T09:59:04.279Z,29.875
2018-06-17T10:00:04.002Z,29.875
2018-06-17T10:01:03.447Z,30.125
2018-06-17T10:02:04.037Z,30.25
2018-06-17T10:03:03.583Z,30.187
2018-06-17T10:04:04.014Z,30
2018-06-17T10:05:03.705Z,29.687
2018-06-17T10:06:03.302Z,29.375
2018-06-17T10:07:03.919Z,29.25
2018-06-17T10:08:03.332Z,29.125
2018-06-17T10:09:04.609Z,29
2018-06-17T10:10:04.216Z,29
2018-06-17T10:11:03.930Z,29
2018-06-17T10:12:03.392Z,29.187
2018-06-17T10:13:04.096Z,29.375
2018-06-17T10:14:03.457Z,29.562
2018-06-17T10:15:03.987Z,29.75
2018-06-17T10:16:03.639Z,29.5
2018-06-17T10:17:03.552Z,29.562
2018-06-17T10:18:04.370Z,29.687
2018-06-17T10:19:03.833Z,29.875
2018-06-17T10:20:04.585Z,29.937
2018-06-17T10:21:04.631Z,29.75
2018-06-17T10:22:03.314Z,29.687
2018-06-17T10:23:04.029Z,29.437
2018-06-17T10:24:03.851Z,29.187
2018-06-17T10:25:03.308Z,28.875
2018-06-17T10:26:03.694Z,28.75
2018-06-17T10:27:04.281Z,28.625
2018-06-17T10:28:03.758Z,28.75
2018-06-17T10:29:03.404Z,28.875
2018-06-17T10:30:03.909Z,29
2018-06-17T10:31:03.403Z,28.812
2018-06-17T10:32:04.074Z,28.812
2018-06-17T10:33:04.401Z,28.812
2018-06-17T10:34:03.836Z,28.625
2018-06-17T10:35:03.605Z,28.5
2018-06-17T10:36:03.759Z,28.437
2018-06-17T10:37:04.038Z,28.062
2018-06-17T10:38:03.636Z,27.625
2018-06-17T10:39:04.584Z,27.875
2018-06-17T10:40:03.967Z,28.125
2018-06-17T10:41:03.582Z,28.375
2018-06-17T10:42:04.425Z,28.687
2018-06-17T10:43:04.106Z,28.812
2018-06-17T10:44:03.721Z,28.875
2018-06-17T10:45:03.432Z,28.875
2018-06-17T10:46:03.827Z,29
2018-06-17T10:47:04.283Z,29
2018-06-17T10:48:04.071Z,29.25
2018-06-17T10:49:04.920Z,29.562
2018-06-17T10:50:04.203Z,29.437
2018-06-17T10:51:03.987Z,29.25
2018-06-17T10:52:03.652Z,29.062
2018-06-17T10:53:04.178Z,29.062
2018-06-17T10:54:03.748Z,28.937
2018-06-17T10:55:03.319Z,28.75
2018-06-17T10:56:04.232Z,28.75
2018-06-17T10:57:04.015Z,28.562
2018-06-17T10:58:03.687Z,28.375
2018-06-17T10:59:03.850Z,28.125
2018-06-17T11:00:04.389Z,28
2018-06-17T11:01:03.846Z,27.875
2018-06-17T11:02:03.459Z,27.875
2018-06-17T11:03:03.759Z,28.062
2018-06-17T11:04:03.913Z,28.187
2018-06-17T11:05:03.650Z,28.25
2018-06-17T11:06:04.284Z,28.187
2018-06-17T11:07:03.940Z,28.125
2018-06-17T11:08:03.528Z,28.062
2018-06-17T11:09:04.518Z,28
2018-06-17T11:10:04.096Z,28
2018-06-17T11:11:03.658Z,28
2018-06-17T11:12:04.347Z,28
2018-06-17T11:13:03.784Z,28.187
2018-06-17T11:14:03.479Z,28.375
2018-06-17T11:15:04.204Z,28.437
2018-06-17T11:16:04.123Z,28.812
2018-06-17T11:17:03.944Z,29
2018-06-17T11:18:04.253Z,29.187
2018-06-17T11:19:03.777Z,29.312
2018-06-17T11:20:04.252Z,29.312
2018-06-17T11:21:03.775Z,29.437
2018-06-17T11:22:03.369Z,29.687
2018-06-17T11:23:03.865Z,29.75
2018-06-17T11:24:03.552Z,29.875
2018-06-17T11:25:04.057Z,30.062
2018-06-17T11:26:03.827Z,30.125
2018-06-17T11:27:03.528Z,30.187
2018-06-17T11:28:04.115Z,29.937
2018-06-17T11:29:04.004Z,29.687
2018-06-17T11:30:03.579Z,29.812
2018-06-17T11:31:04.262Z,29.687
2018-06-17T11:32:03.526Z,29.562
2018-06-17T11:33:03.870Z,29.687
2018-06-17T11:34:03.558Z,29.437
2018-06-17T11:35:04.258Z,29.25
2018-06-17T11:36:03.939Z,29.125
2018-06-17T11:37:03.445Z,28.937
2018-06-17T11:38:03.804Z,28.812
2018-06-17T11:39:03.721Z,28.625
2018-06-17T11:40:04.218Z,28.437
2018-06-17T11:41:03.620Z,28.312
2018-06-17T11:42:04.199Z,28.625
2018-06-17T11:43:03.936Z,28.75
2018-06-17T11:44:03.539Z,28.812
2018-06-17T11:45:04.232Z,28.875
2018-06-17T11:46:03.897Z,28.875
2018-06-17T11:47:03.507Z,28.937
2018-06-17T11:48:04.027Z,28.812
2018-06-17T11:49:03.939Z,29.062
2018-06-17T11:50:03.500Z,29.312
2018-06-17T11:51:04.070Z,29.375
2018-06-17T11:52:04.157Z,29.562
2018-06-17T11:53:03.786Z,29.562
2018-06-17T11:54:04.238Z,29.437
2018-06-17T11:55:03.855Z,29.25
2018-06-17T11:56:03.403Z,29.375
2018-06-17T11:57:03.955Z,29.562
2018-06-17T11:58:03.838Z,29.75
2018-06-17T11:59:03.968Z,29.875
2018-06-17T12:00:03.765Z,29.875
2018-06-17T12:01:04.074Z,30
2018-06-17T12:02:03.386Z,29.875
2018-06-17T12:03:03.647Z,29.625
2018-06-17T12:04:03.288Z,29.375
2018-06-17T12:05:03.866Z,29.062
2018-06-17T12:06:03.409Z,28.875
2018-06-17T12:07:04.072Z,28.437
2018-06-17T12:08:03.422Z,28.312
2018-06-17T12:09:04.075Z,28.312
2018-06-17T12:10:03.521Z,28.25
2018-06-17T12:11:03.948Z,28.125
2018-06-17T12:12:03.611Z,28.062
2018-06-17T12:13:04.344Z,28.312
2018-06-17T12:14:03.924Z,28.562
2018-06-17T12:15:03.586Z,28.75
2018-06-17T12:16:04.140Z,29
2018-06-17T12:17:03.987Z,29.312
2018-06-17T12:18:04.250Z,29.562
2018-06-17T12:19:03.901Z,29.562
2018-06-17T12:20:03.348Z,29.562
2018-06-17T12:21:04.154Z,29.687
2018-06-17T12:22:03.652Z,29.875
2018-06-17T12:23:03.882Z,29.937
2018-06-17T12:24:03.726Z,30
2018-06-17T12:25:03.633Z,29.937
2018-06-17T12:26:04.136Z,29.875
2018-06-17T12:27:03.706Z,29.875
2018-06-17T12:28:03.469Z,29.875
2018-06-17T12:29:04.123Z,29.812
2018-06-17T12:30:04.641Z,29.875
2018-06-17T12:31:03.736Z,29.937
2018-06-17T12:32:03.391Z,29.687
2018-06-17T12:33:03.974Z,29.562
2018-06-17T12:34:03.629Z,29.562
2018-06-17T12:35:03.669Z,29.812
2018-06-17T12:36:03.328Z,29.875
2018-06-17T12:37:03.964Z,29.75
2018-06-17T12:38:03.648Z,29.5
2018-06-17T12:39:03.676Z,29.25
2018-06-17T12:40:04.147Z,29.125
2018-06-17T12:41:03.701Z,28.875
2018-06-17T12:42:04.219Z,28.75
2018-06-17T12:43:04.259Z,28.562
2018-06-17T12:44:03.637Z,28.5
2018-06-17T12:45:04.345Z,28.562